Time;durP1;ratioP1;P1;durP2;ratioP2;P2;SDS_P1;SDS_P2;PMS_P1;PMS_P2;Temp;Humidity;BMP_temperature;BMP_pressure;BME280_temperature;BME280_humidity;BME280_pressure;Samples;Min_cycle;Max_cycle;Signal;HPM_P1;HPM_P2
2022/04/01 00:00:24;;;;;;;17.20;6.53;;;;;;;15.21;91.01;99502.05;1715964;83;21281;-60
2022/04/01 00:02:52;;;;;;;17.30;6.70;;;;;;;15.15;93.86;99501.12;1715140;83;22932;-59
2022/04/01 00:05:19;;;;;;;17.07;6.97;;;;;;;14.86;98.65;99495.55;1715734;83;21296;-61
2022/04/01 00:07:45;;;;;;;15.13;7.50;;;;;;;15.26;97.70;99485.88;1715920;83;21391;-59
2022/04/01 00:10:13;;;;;;;20.37;7.43;;;;;;;14.99;98.37;99487.41;1715963;83;21281;-59
2022/04/01 00:12:44;;;;;;;16.03;6.67;;;;;;;14.73;100.00;99482.13;1715658;83;21084;-58
2022/04/01 00:15:12;;;;;;;17.02;6.87;;;;;;;15.06;100.00;99484.16;1715851;82;21300;-59
2022/04/01 00:17:41;;;;;;;15.37;5.93;;;;;;;15.13;100.00;99476.16;1716063;82;21033;-59
2022/04/01 00:20:10;;;;;;;16.60;6.77;;;;;;;15.10;100.00;99470.84;1715352;83;21771;-58
2022/04/01 00:22:38;;;;;;;13.45;7.15;;;;;;;15.29;100.00;99474.91;1715807;83;21736;-58
2022/04/01 00:25:06;;;;;;;13.43;7.47;;;;;;;15.28;100.00;99477.26;1715240;83;22216;-59
2022/04/01 00:27:33;;;;;;;15.23;7.17;;;;;;;15.34;100.00;99466.33;1715951;82;21336;-58
2022/04/01 00:29:59;;;;;;;15.32;6.72;;;;;;;15.34;100.00;99461.08;1715950;83;21116;-57
2022/04/01 00:32:26;;;;;;;15.70;7.23;;;;;;;15.18;100.00;99463.92;1716181;83;20912;-57
2022/04/01 00:34:54;;;;;;;20.30;7.30;;;;;;;15.12;100.00;99462.77;1715846;82;21160;-65
2022/04/01 00:37:20;;;;;;;15.93;7.57;;;;;;;15.37;100.00;99456.67;1715522;83;21299;-59
2022/04/01 00:39:47;;;;;;;14.97;8.27;;;;;;;15.28;100.00;99446.27;1715800;83;21337;-58
2022/04/01 00:42:14;;;;;;;17.87;7.37;;;;;;;15.44;100.00;99438.95;1715892;82;20943;-59
2022/04/01 00:44:42;;;;;;;16.83;8.00;;;;;;;15.40;100.00;99423.39;1716043;83;21116;-61
2022/04/01 00:47:14;;;;;;;16.23;7.37;;;;;;;15.48;100.00;99416.95;1715772;83;21157;-65
2022/04/01 00:49:42;;;;;;;18.40;8.25;;;;;;;15.20;100.00;99406.74;1715975;83;21706;-58
2022/04/01 00:52:15;;;;;;;19.30;8.23;;;;;;;15.63;100.00;99411.18;1715940;83;21848;-58
2022/04/01 00:54:42;;;;;;;18.27;7.77;;;;;;;15.36;100.00;99409.13;1715710;83;21328;-58
2022/04/01 00:57:11;;;;;;;18.67;8.23;;;;;;;15.32;100.00;99405.38;1715947;83;21251;-59
2022/04/01 00:59:39;;;;;;;15.67;7.97;;;;;;;15.64;100.00;99395.69;1715599;83;21360;-58
2022/04/01 01:02:08;;;;;;;19.80;8.25;;;;;;;15.81;100.00;99395.23;1715705;83;21395;-59
2022/04/01 01:04:37;;;;;;;14.75;6.83;;;;;;;15.67;100.00;99396.56;1714450;83;20991;-57
2022/04/01 01:07:05;;;;;;;14.80;6.35;;;;;;;15.41;100.00;99404.48;1701109;84;21032;-60
2022/04/01 01:09:32;;;;;;;16.37;7.40;;;;;;;15.68;100.00;99405.55;1701139;82;21014;-58
2022/04/01 01:11:59;;;;;;;15.30;7.50;;;;;;;15.51;100.00;99396.27;1701894;82;21295;-57
2022/04/01 01:14:31;;;;;;;15.03;7.40;;;;;;;15.41;100.00;99412.36;1702323;82;21240;-60
2022/04/01 01:16:59;;;;;;;15.83;7.20;;;;;;;15.43;100.00;99403.23;1701282;83;21848;-57
2022/04/01 01:19:26;;;;;;;16.07;6.87;;;;;;;15.21;100.00;99386.53;1701470;82;20958;-57
2022/04/01 01:21:55;;;;;;;14.83;7.77;;;;;;;15.03;100.00;99380.42;1702374;82;21424;-57
2022/04/01 01:24:32;;;;;;;21.52;8.13;;;;;;;15.04;100.00;99369.44;1701399;84;21045;-57
2022/04/01 01:27:00;;;;;;;15.00;6.67;;;;;;;15.12;100.00;99359.88;1702448;82;20982;-64
2022/04/01 01:29:29;;;;;;;14.63;7.43;;;;;;;15.08;100.00;99357.44;1701409;82;21305;-57
2022/04/01 01:31:59;;;;;;;17.37;7.90;;;;;;;15.10;100.00;99371.11;1715774;82;21149;-57
2022/04/01 01:34:26;;;;;;;18.90;9.30;;;;;;;15.12;100.00;99368.27;1727411;82;21261;-58
2022/04/01 01:36:53;;;;;;;16.30;8.40;;;;;;;15.18;100.00;99354.19;1727923;81;21244;-59
2022/04/01 01:39:21;;;;;;;18.00;8.83;;;;;;;15.07;100.00;99361.07;1727763;81;21211;-61
2022/04/01 01:41:53;;;;;;;14.73;8.03;;;;;;;15.31;100.00;99356.53;1727424;83;21342;-57
2022/04/01 01:44:18;;;;;;;20.23;8.33;;;;;;;15.36;100.00;99353.20;1726711;83;21317;-59
2022/04/01 01:46:46;;;;;;;18.03;8.10;;;;;;;15.35;100.00;99364.22;1728332;81;21113;-57
2022/04/01 01:49:12;;;;;;;22.53;8.87;;;;;;;15.29;100.00;99362.00;1727322;81;21177;-58
2022/04/01 01:54:43;;;;;;;17.97;8.30;;;;;;;15.36;100.00;99372.38;1728598;81;21254;-57
2022/04/01 01:57:13;;;;;;;21.73;9.60;;;;;;;15.11;100.00;99371.38;1727996;81;21697;-57
2022/04/01 01:59:40;;;;;;;20.93;8.97;;;;;;;15.21;100.00;99368.16;1727828;81;21301;-59
2022/04/01 02:02:08;;;;;;;18.30;8.67;;;;;;;15.16;100.00;99344.45;1727369;82;21037;-57
2022/04/01 02:04:35;;;;;;;16.63;7.03;;;;;;;15.43;100.00;99344.66;1732665;81;21164;-66
2022/04/01 02:07:03;;;;;;;22.27;9.30;;;;;;;15.40;100.00;99349.06;1739989;81;23172;-57
2022/04/01 02:09:30;;;;;;;15.93;8.37;;;;;;;15.40;100.00;99333.31;1739129;82;21060;-58
2022/04/01 02:11:58;;;;;;;21.20;10.40;;;;;;;15.42;100.00;99341.23;1739900;82;21133;-59
2022/04/01 02:14:25;;;;;;;19.90;7.93;;;;;;;15.36;100.00;99338.75;1739961;82;21349;-59
2022/04/01 02:16:53;;;;;;;16.37;8.20;;;;;;;15.30;100.00;99331.29;1724850;82;21122;-58
2022/04/01 02:19:23;;;;;;;16.33;8.37;;;;;;;15.30;100.00;99332.60;1739379;82;22047;-58
2022/04/01 02:21:52;;;;;;;17.30;8.48;;;;;;;15.33;100.00;99330.30;1739696;82;21106;-57
2022/04/01 02:24:23;;;;;;;18.63;8.00;;;;;;;15.34;100.00;99338.97;1739862;81;20979;-59
2022/04/01 02:26:51;;;;;;;17.37;8.60;;;;;;;15.32;100.00;99330.03;1738759;81;21401;-58
2022/04/01 02:29:20;;;;;;;16.70;6.77;;;;;;;15.38;100.00;99340.61;1739839;82;21417;-57
2022/04/01 02:31:50;;;;;;;;;;;;;;;15.47;100.00;99337.89;1739580;82;21895;-60
2022/04/01 02:34:20;;;;;;;15.13;7.27;;;;;;;15.40;100.00;99349.86;1736126;82;20206;-60
2022/04/01 02:36:46;;;;;;;15.70;7.90;;;;;;;15.52;100.00;99347.95;1717923;82;21239;-58
2022/04/01 02:39:13;;;;;;;21.30;8.97;;;;;;;15.74;100.00;99342.83;1739942;81;21391;-57
2022/04/01 02:41:41;;;;;;;19.77;9.07;;;;;;;15.88;100.00;99342.00;1738769;82;21302;-58
2022/04/01 02:44:09;;;;;;;16.37;8.50;;;;;;;15.58;100.00;99330.46;1739272;81;21854;-59
2022/04/01 02:46:43;;;;;;;18.47;8.30;;;;;;;15.85;100.00;99328.55;1739303;82;21798;-61
2022/04/01 02:49:16;;;;;;;21.13;9.07;;;;;;;15.61;100.00;99319.98;1739416;81;21338;-59
2022/04/01 02:51:46;;;;;;;14.57;8.13;;;;;;;15.73;100.00;99311.55;1736747;82;21868;-58
2022/04/01 02:54:20;;;;;;;19.37;8.43;;;;;;;15.79;100.00;99315.30;1739682;82;21299;-58
2022/04/01 02:56:47;;;;;;;17.57;8.70;;;;;;;15.86;98.15;99307.27;1738826;82;21266;-58
2022/04/01 02:59:14;;;;;;;18.80;8.40;;;;;;;15.89;97.59;99300.74;1739379;82;22688;-58
2022/04/01 03:01:41;;;;;;;18.50;8.63;;;;;;;15.88;97.07;99314.92;1803864;77;21097;-58
2022/04/01 03:04:10;;;;;;;20.90;8.37;;;;;;;15.86;98.15;99306.47;1849372;77;21521;-59
2022/04/01 03:06:39;;;;;;;22.47;8.60;;;;;;;15.95;95.24;99315.56;1848369;77;21366;-59
2022/04/01 03:09:07;;;;;;;19.80;7.30;;;;;;;15.97;95.58;99325.30;1849083;77;21651;-60
2022/04/01 03:11:36;;;;;;;19.77;8.63;;;;;;;16.01;93.93;99332.45;1819461;77;21202;-60
2022/04/01 03:14:08;;;;;;;19.73;7.60;;;;;;;15.92;94.47;99308.95;1819199;77;21803;-59
2022/04/01 03:16:46;;;;;;;21.93;8.13;;;;;;;15.98;93.70;99308.48;1810394;77;21259;-60
2022/04/01 03:19:13;;;;;;;15.27;6.47;;;;;;;16.10;91.61;99320.21;1849993;77;21667;-58
2022/04/01 03:21:40;;;;;;;14.90;7.27;;;;;;;16.02;91.60;99319.61;1839844;77;21268;-60
2022/04/01 03:24:12;;;;;;;17.17;7.43;;;;;;;16.06;90.75;99309.38;1845765;77;21030;-58
2022/04/01 03:26:39;;;;;;;17.63;7.17;;;;;;;15.92;91.74;99320.77;1847617;77;21691;-58
2022/04/01 03:29:07;;;;;;;17.53;7.07;;;;;;;15.97;90.83;99321.36;1849515;77;22356;-59
2022/04/01 03:31:35;;;;;;;22.77;8.87;;;;;;;15.98;90.65;99317.16;1845333;77;21214;-61
2022/04/01 03:34:06;;;;;;;16.97;8.00;;;;;;;16.10;88.93;99320.21;1849684;77;21220;-59
2022/04/01 03:36:34;;;;;;;15.63;6.70;;;;;;;15.96;87.92;99307.42;1848842;77;21210;-58
2022/04/01 03:39:03;;;;;;;16.60;7.40;;;;;;;16.10;87.94;99319.72;1849622;77;21180;-58
2022/04/01 03:41:35;;;;;;;17.90;7.37;;;;;;;16.05;87.76;99315.69;1848942;77;21277;-59
2022/04/01 03:44:04;;;;;;;17.23;7.40;;;;;;;16.17;86.50;99317.69;1849009;77;21884;-59
2022/04/01 03:46:46;;;;;;;13.63;7.10;;;;;;;16.18;84.37;99310.09;1848034;77;21585;-58
2022/04/01 03:49:23;;;;;;;17.13;7.53;;;;;;;16.27;82.98;99299.42;1839853;77;21419;-59
2022/04/01 03:51:51;;;;;;;15.77;7.80;;;;;;;16.35;81.18;99303.47;1818818;77;21755;-59
2022/04/01 03:54:19;;;;;;;22.90;9.20;;;;;;;16.33;81.83;99290.27;1850118;77;21225;-58
2022/04/01 03:56:58;;;;;;;16.40;8.40;;;;;;;16.27;83.02;99297.31;1807840;77;21334;-59
2022/04/01 03:59:44;;;;;;;16.97;7.37;;;;;;;16.41;81.27;99309.08;1848988;77;21324;-59
2022/04/01 04:02:33;;;;;;;23.93;8.27;;;;;;;16.29;83.51;99306.56;1843860;77;21771;-60
2022/04/01 04:05:03;;;;;;;19.40;7.10;;;;;;;16.34;82.36;99311.61;1843070;77;21336;-59
2022/04/01 04:07:31;;;;;;;14.70;6.70;;;;;;;16.41;80.00;99314.34;1842889;77;21086;-60
2022/04/01 04:09:59;;;;;;;17.37;6.10;;;;;;;16.46;80.34;99317.55;1844111;77;21050;-59
2022/04/01 04:12:27;;;;;;;17.77;7.30;;;;;;;16.43;79.15;99321.97;1843639;77;21184;-59
2022/04/01 04:15:00;;;;;;;14.20;6.83;;;;;;;16.59;76.60;99323.74;1780390;79;21271;-58
2022/04/01 04:17:40;;;;;;;12.27;5.67;;;;;;;16.50;77.14;99322.59;1773838;80;21777;-60
2022/04/01 04:20:24;;;;;;;18.05;7.20;;;;;;;16.58;76.71;99321.37;1801637;79;21043;-60
2022/04/01 04:23:24;;;;;;;12.20;6.00;;;;;;;16.47;77.87;99315.97;1791175;78;21055;-58
2022/04/01 04:26:00;;;;;;;17.67;6.97;;;;;;;16.52;77.99;99319.21;1800621;79;21283;-62
2022/04/01 04:28:27;;;;;;;18.57;6.73;;;;;;;16.38;78.17;99319.28;1795609;79;21279;-60
2022/04/01 04:31:01;;;;;;;11.33;6.33;;;;;;;16.49;77.23;99315.75;1761203;80;21693;-60
2022/04/01 04:33:33;;;;;;;15.90;5.87;;;;;;;16.62;76.64;99319.31;1783935;80;21352;-59
2022/04/01 04:36:04;;;;;;;17.17;7.00;;;;;;;16.67;76.24;99304.12;1788461;80;21235;-59
2022/04/01 04:38:39;;;;;;;10.97;5.60;;;;;;;16.67;75.07;99305.44;1787116;80;21268;-58
2022/04/01 04:41:10;;;;;;;15.80;5.90;;;;;;;16.69;75.33;99308.08;1787651;80;21383;-57
2022/04/01 04:43:44;;;;;;;18.63;6.67;;;;;;;16.84;74.00;99307.48;1787299;80;21344;-60
2022/04/01 04:46:11;;;;;;;13.67;5.83;;;;;;;16.93;73.40;99309.97;1756994;80;21390;-61
2022/04/01 04:48:41;;;;;;;17.67;6.30;;;;;;;17.17;72.44;99289.39;1782868;80;21290;-60
2022/04/01 04:51:09;;;;;;;18.87;6.43;;;;;;;17.03;72.53;99285.56;1782931;80;21679;-62
2022/04/01 04:53:39;;;;;;;16.33;5.30;;;;;;;17.19;70.91;99292.55;1783894;80;21200;-61
2022/04/01 04:56:07;;;;;;;15.53;6.20;;;;;;;17.59;68.78;99309.77;1757440;80;21394;-61
2022/04/01 04:58:39;;;;;;;22.87;6.23;;;;;;;17.44;69.38;99303.84;1787405;80;21351;-60
2022/04/01 05:01:26;;;;;;;23.97;6.93;;;;;;;17.39;69.99;99306.45;1756791;80;21237;-64
2022/04/01 05:04:09;;;;;;;15.77;6.60;;;;;;;17.28;69.36;99300.03;1787633;80;21781;-60
2022/04/01 05:06:41;;;;;;;15.13;5.60;;;;;;;17.39;68.72;99290.64;1756868;80;21808;-63
2022/04/01 05:09:33;;;;;;;18.97;6.33;;;;;;;17.40;69.40;99295.38;1730006;80;22159;-60
2022/04/01 05:12:07;;;;;;;19.73;6.87;;;;;;;17.42;68.82;99294.59;1785859;80;21810;-59
2022/04/01 05:15:10;;;;;;;17.40;6.33;;;;;;;17.15;70.50;99295.94;1784930;80;22008;-58
2022/04/01 05:18:14;;;;;;;19.30;5.37;;;;;;;17.25;68.99;99295.52;1788028;80;21344;-58
2022/04/01 05:20:56;;;;;;;14.87;5.00;;;;;;;17.36;70.22;99286.39;1787679;80;21157;-60
2022/04/01 05:23:45;;;;;;;15.72;5.53;;;;;;;17.49;68.13;99274.89;1787623;80;21316;-59
2022/04/01 05:26:15;;;;;;;15.75;5.22;;;;;;;17.54;67.02;99270.21;1780269;80;20991;-60
2022/04/01 05:29:02;;;;;;;18.07;6.50;;;;;;;17.55;65.92;99265.73;1787968;80;21327;-59
2022/04/01 05:31:44;;;;;;;17.27;6.40;;;;;;;17.32;70.08;99262.92;1782798;80;22299;-58
2022/04/01 05:34:35;;;;;;;15.90;5.53;;;;;;;17.52;69.47;99259.11;1779118;80;21327;-61
2022/04/01 05:37:03;;;;;;;14.63;6.10;;;;;;;17.95;64.16;99264.67;1788418;80;21434;-59
2022/04/01 05:39:31;;;;;;;14.17;6.53;;;;;;;17.71;63.11;99258.98;1782812;80;21362;-59
2022/04/01 05:42:00;;;;;;;17.37;5.83;;;;;;;17.49;65.17;99249.07;1786978;80;21409;-59
2022/04/01 05:44:29;;;;;;;19.97;6.17;;;;;;;17.57;65.29;99255.19;1787145;80;21511;-59
2022/04/01 05:46:56;;;;;;;12.70;5.60;;;;;;;17.79;64.41;99258.27;1786999;80;21562;-59
2022/04/01 05:49:24;;;;;;;12.17;5.20;;;;;;;17.79;64.41;99258.27;1788086;80;21463;-59
2022/04/01 05:51:51;;;;;;;14.83;5.83;;;;;;;18.08;62.46;99266.08;1780994;80;21962;-59
2022/04/01 05:54:19;;;;;;;19.87;6.13;;;;;;;18.26;58.99;99250.34;1787635;80;21489;-61
2022/04/01 05:56:47;;;;;;;16.50;5.90;;;;;;;18.17;59.15;99250.55;1774853;80;21850;-59
2022/04/01 05:59:20;;;;;;;17.63;5.27;;;;;;;18.17;59.15;99250.55;1769709;80;21504;-63
2022/04/01 06:02:12;;;;;;;17.23;5.90;;;;;;;18.13;60.57;99250.80;1777021;80;21539;-69
2022/04/01 06:05:14;;;;;;;14.10;5.90;;;;;;;18.09;59.58;99241.28;1787162;80;22276;-60
2022/04/01 06:08:13;;;;;;;20.55;7.37;;;;;;;18.40;57.62;99233.48;1787822;80;21472;-58
2022/04/01 06:11:16;;;;;;;17.47;5.87;;;;;;;18.67;56.12;99222.73;1787040;80;21322;-64
2022/04/01 06:14:09;;;;;;;18.33;7.00;;;;;;;18.67;56.12;99222.73;1754336;80;21505;-59
2022/04/01 06:17:28;;;;;;;19.70;7.13;;;;;;;18.76;55.82;99225.70;1690958;83;21563;-59
2022/04/01 06:19:57;;;;;;;19.07;6.60;;;;;;;18.85;54.81;99224.13;1677455;84;21053;-58
2022/04/01 06:22:25;;;;;;;17.00;6.10;;;;;;;18.90;53.83;99222.80;1740147;80;21645;-59
2022/04/01 06:25:06;;;;;;;16.57;5.83;;;;;;;19.03;53.04;99242.10;1787715;80;21731;-68
2022/04/01 06:27:41;;;;;;;17.12;6.37;;;;;;;18.98;52.82;99229.41;1787381;80;21663;-58
2022/04/01 06:30:10;;;;;;;12.57;5.67;;;;;;;19.05;52.67;99216.20;1787991;80;21060;-57
2022/04/01 06:33:13;;;;;;;17.20;6.73;;;;;;;19.25;51.84;99219.92;1787375;80;21734;-65
2022/04/01 06:35:56;;;;;;;18.90;6.40;;;;;;;19.45;50.93;99206.68;1771550;80;21139;-60
2022/04/01 06:38:41;;;;;;;16.10;6.40;;;;;;;19.71;49.66;99196.09;1781319;80;22255;-62
2022/04/01 06:41:21;;;;;;;18.00;5.67;;;;;;;19.67;49.76;99202.44;1775900;80;21669;-60
2022/04/01 06:43:54;;;;;;;18.33;6.27;;;;;;;19.83;48.96;99198.69;1778052;80;21822;-61
2022/04/01 06:46:26;;;;;;;16.63;5.53;;;;;;;20.22;48.53;99197.20;1730610;80;21577;-59
2022/04/01 06:48:55;;;;;;;18.83;9.80;;;;;;;20.39;48.15;99194.48;1764501;80;21091;-58
2022/04/01 06:51:40;;;;;;;17.33;6.50;;;;;;;20.70;47.03;99189.55;1787663;80;21625;-58
2022/04/01 06:54:12;;;;;;;15.70;5.50;;;;;;;20.76;45.95;99182.62;1778478;80;21052;-58
2022/04/01 06:56:46;;;;;;;15.80;5.73;;;;;;;20.93;45.45;99180.90;1738032;80;21001;-59
2022/04/01 06:59:13;;;;;;;20.37;5.57;;;;;;;21.36;44.77;99187.70;1774907;80;21066;-62
2022/04/01 07:01:40;;;;;;;15.60;5.10;;;;;;;21.65;43.85;99181.58;1785135;80;21668;-60
2022/04/01 07:04:07;;;;;;;14.83;4.97;;;;;;;21.96;42.23;99179.36;1790982;80;21240;-58
2022/04/01 07:06:35;;;;;;;16.50;5.70;;;;;;;21.86;41.92;99169.68;1790354;80;21047;-58
2022/04/01 07:09:02;;;;;;;15.10;5.63;;;;;;;21.83;41.62;99178.20;1787897;80;21059;-60
2022/04/01 07:11:30;;;;;;;13.30;4.80;;;;;;;21.99;41.50;99170.84;1846090;77;21016;-59
2022/04/01 07:13:57;;;;;;;13.17;5.20;;;;;;;21.91;41.24;99164.30;1847066;77;21635;-59
2022/04/01 07:16:25;;;;;;;16.47;5.73;;;;;;;21.82;41.07;99181.91;1847051;77;21545;-58
2022/04/01 07:18:51;;;;;;;11.17;5.63;;;;;;;21.95;40.67;99175.14;1846815;77;20948;-58
2022/04/01 07:21:20;;;;;;;17.50;6.47;;;;;;;22.06;40.74;99176.05;1844295;77;20999;-61
2022/04/01 07:23:47;;;;;;;18.77;6.13;;;;;;;22.30;40.06;99175.23;1838366;77;21133;-58
2022/04/01 07:26:13;;;;;;;14.67;4.63;;;;;;;22.57;39.39;99184.66;1841446;77;21327;-59
2022/04/01 07:28:58;;;;;;;14.23;5.43;;;;;;;22.63;38.68;99185.94;1845116;77;22131;-66
2022/04/01 07:34:13;;;;;;;13.33;4.53;;;;;;;22.88;37.96;99168.27;1707252;83;20975;-59
2022/04/01 07:36:41;;;;;;;18.50;4.97;;;;;;;23.26;37.05;99157.02;1695057;83;21105;-66
2022/04/01 07:39:10;;;;;;;17.03;4.47;;;;;;;23.39;36.71;99146.14;1634081;86;21115;-59
2022/04/01 07:41:37;;;;;;;17.30;5.87;;;;;;;23.46;36.82;99149.74;1616188;87;21342;-59
2022/04/01 07:44:05;;;;;;;14.83;5.00;;;;;;;23.75;36.57;99141.47;1547782;91;21047;-59
2022/04/01 07:46:34;;;;;;;13.60;4.50;;;;;;;23.80;36.13;99144.05;1512266;94;21055;-63
2022/04/01 07:49:02;;;;;;;15.63;5.27;;;;;;;24.19;35.70;99149.34;1522179;93;21134;-58
2022/04/01 07:51:29;;;;;;;19.77;6.00;;;;;;;24.61;34.88;99130.81;1511780;94;22062;-59
2022/04/01 07:53:57;;;;;;;11.40;4.30;;;;;;;24.88;34.78;99127.22;1464703;97;21888;-60
2022/04/01 07:56:30;;;;;;;16.13;5.07;;;;;;;25.33;34.04;99119.15;1411550;100;21103;-60
2022/04/01 07:58:53;;;;;;;13.10;5.40;;;;;;;25.56;33.79;99124.41;1407421;100;21148;-59
2022/04/01 08:01:22;;;;;;;15.97;5.13;;;;;;;25.90;33.14;99116.49;1408620;100;21505;-57
2022/04/01 08:04:07;;;;;;;16.00;5.20;;;;;;;26.17;32.69;99111.95;1408815;100;21736;-58
2022/04/01 08:06:35;;;;;;;20.53;5.50;;;;;;;26.30;31.95;99100.89;1376277;102;21723;-64
2022/04/01 08:09:21;;;;;;;13.90;5.27;;;;;;;26.37;31.15;99095.86;1375432;104;21162;-59
2022/04/01 08:11:52;;;;;;;18.00;5.63;;;;;;;26.40;31.20;99097.35;1383436;103;21728;-59
2022/04/01 08:14:19;;;;;;;17.77;5.77;;;;;;;26.77;30.88;99097.77;1407183;101;21138;-60
2022/04/01 08:16:46;;;;;;;19.63;6.03;;;;;;;26.93;30.05;99084.13;1398648;101;21190;-59
2022/04/01 08:19:13;;;;;;;16.83;6.47;;;;;;;27.07;29.86;99063.06;1391399;103;22560;-60
2022/04/01 08:21:44;;;;;;;16.20;6.70;;;;;;;27.35;29.40;99058.88;1442914;97;21137;-57
2022/04/01 08:24:28;;;;;;;18.43;6.27;;;;;;;27.50;29.51;99057.50;1465589;97;20981;-59
2022/04/01 08:26:59;;;;;;;16.00;6.27;;;;;;;27.75;29.28;99047.77;1460169;95;21210;-58
2022/04/01 08:29:29;;;;;;;15.27;5.60;;;;;;;27.96;28.60;99052.32;1437740;98;21605;-57
2022/04/01 08:31:57;;;;;;;16.67;5.90;;;;;;;28.30;27.95;99029.25;1442289;99;21929;-57
2022/04/01 08:34:25;;;;;;;17.57;6.03;;;;;;;28.37;27.88;99019.34;1505524;92;21516;-60
2022/04/01 08:36:51;;;;;;;21.13;6.97;;;;;;;28.72;27.17;99024.34;1535922;92;21208;-57
2022/04/01 08:39:36;;;;;;;15.73;5.00;;;;;;;28.96;27.34;99011.49;1531643;93;21186;-59
2022/04/01 08:42:05;;;;;;;16.90;6.20;;;;;;;29.34;25.94;99012.49;1420128;99;21135;-57
2022/04/01 08:44:31;;;;;;;18.00;5.53;;;;;;;29.55;25.61;99028.46;1427336;99;21754;-59
2022/04/01 08:47:16;;;;;;;17.30;5.57;;;;;;;29.65;25.26;99023.97;1436088;99;21187;-57
2022/04/01 08:49:44;;;;;;;20.57;5.53;;;;;;;29.70;24.96;99025.09;1435752;99;21567;-59
2022/04/01 08:52:11;;;;;;;15.67;5.47;;;;;;;29.70;24.41;99014.34;1436352;98;21689;-60
2022/04/01 08:54:38;;;;;;;17.30;5.77;;;;;;;29.66;24.54;99028.21;1436132;98;21105;-58
2022/04/01 08:57:08;;;;;;;23.23;7.17;;;;;;;29.60;24.46;99018.84;1436192;99;21908;-59
2022/04/01 08:59:35;;;;;;;22.87;6.77;;;;;;;29.68;24.67;99011.20;1415226;99;21165;-57
2022/04/01 09:02:08;;;;;;;19.40;5.80;;;;;;;29.84;24.37;99014.52;1464131;96;21099;-58
2022/04/01 09:04:35;;;;;;;28.30;6.50;;;;;;;29.87;24.26;99012.50;1481107;95;21135;-59
2022/04/01 09:07:12;;;;;;;25.93;7.57;;;;;;;29.66;24.26;99006.73;1539385;90;21394;-58
2022/04/01 09:09:40;;;;;;;23.47;6.17;;;;;;;29.62;24.47;98996.45;1624311;86;21660;-58
2022/04/01 09:12:15;;;;;;;20.63;6.27;;;;;;;29.52;24.36;98983.48;1624888;88;21106;-58
2022/04/01 09:14:53;;;;;;;20.37;6.23;;;;;;;29.60;24.21;98978.56;1624551;88;21453;-58
2022/04/01 09:17:20;;;;;;;25.53;7.60;;;;;;;29.69;24.39;98981.10;1624600;88;21630;-57
2022/04/01 09:20:07;;;;;;;30.73;6.97;;;;;;;29.21;24.61;98976.85;1747107;79;20914;-59
2022/04/01 09:22:34;;;;;;;29.83;6.23;;;;;;;29.99;23.66;98968.88;1804566;79;21907;-58
2022/04/01 09:25:10;;;;;;;36.07;7.43;;;;;;;28.64;24.81;98954.95;1804710;79;21048;-57
2022/04/01 09:27:46;;;;;;;30.97;8.00;;;;;;;29.53;24.22;98964.34;1804313;79;21039;-58
2022/04/01 09:30:21;;;;;;;30.87;6.37;;;;;;;29.81;24.02;98957.67;1670424;85;21078;-57
2022/04/01 09:33:06;;;;;;;36.63;7.60;;;;;;;30.07;23.70;98957.75;1673871;85;21542;-58
2022/04/01 09:35:33;;;;;;;27.37;6.73;;;;;;;30.39;23.17;98960.52;1673068;85;21686;-58
2022/04/01 09:38:17;;;;;;;28.00;6.43;;;;;;;30.52;22.77;98967.36;1674588;85;21094;-58
2022/04/01 09:40:44;;;;;;;28.93;6.60;;;;;;;30.59;22.86;98966.76;1668620;85;21102;-57
2022/04/01 09:43:11;;;;;;;31.17;7.00;;;;;;;30.57;22.78;98963.63;1642505;86;21023;-57
2022/04/01 09:45:56;;;;;;;33.47;6.93;;;;;;;30.58;22.56;98946.38;1668573;85;21014;-58
2022/04/01 09:48:40;;;;;;;41.13;8.10;;;;;;;30.34;22.56;98933.30;1625534;85;21083;-59
2022/04/01 09:51:09;;;;;;;35.90;8.23;;;;;;;30.29;22.46;98928.98;1674327;85;21619;-57
2022/04/01 09:53:36;;;;;;;46.60;10.03;;;;;;;30.33;22.80;98938.48;1673878;85;20984;-57
2022/04/01 09:56:04;;;;;;;40.07;9.27;;;;;;;30.65;22.31;98929.03;1674052;85;21041;-57
2022/04/01 09:58:48;;;;;;;61.77;9.10;;;;;;;30.82;22.19;98912.56;1668597;85;21008;-57
2022/04/01 10:01:16;;;;;;;48.63;9.13;;;;;;;30.83;21.75;98911.98;1591496;87;21190;-58
2022/04/01 10:03:42;;;;;;;42.87;9.57;;;;;;;30.64;21.94;98921.53;1621047;87;21163;-57
2022/04/01 10:06:29;;;;;;;38.33;9.43;;;;;;;30.34;22.26;98924.47;1629192;87;21536;-59
2022/04/01 10:08:55;;;;;;;44.33;8.67;;;;;;;30.22;22.48;98936.08;1747809;80;22365;-57
2022/04/01 10:11:23;;;;;;;39.03;7.20;;;;;;;30.19;22.35;98922.80;1771590;80;20993;-57
2022/04/01 10:13:51;;;;;;;41.13;9.03;;;;;;;28.86;23.59;98924.20;1773888;80;21142;-58
2022/04/01 10:16:19;;;;;;;51.93;9.60;;;;;;;29.23;23.32;98903.47;1774485;80;21573;-62
2022/04/01 10:19:09;;;;;;;52.67;9.67;;;;;;;29.02;23.43;98913.61;1773489;80;20942;-57
2022/04/01 10:21:37;;;;;;;46.23;9.17;;;;;;;29.72;22.86;98903.31;1807817;79;20900;-57
2022/04/01 10:24:28;;;;;;;55.03;9.33;;;;;;;30.37;22.43;98907.64;1811619;79;21026;-61
2022/04/01 10:27:16;;;;;;;46.67;9.33;;;;;;;30.18;22.32;98890.30;1762471;80;21047;-57
2022/04/01 10:29:45;;;;;;;46.47;9.40;;;;;;;29.93;22.54;98888.33;1714994;83;21916;-58
2022/04/01 10:32:37;;;;;;;57.10;10.90;;;;;;;30.45;21.86;98875.19;1716199;83;21710;-58
2022/04/01 10:35:08;;;;;;;54.50;10.93;;;;;;;30.21;21.86;98891.53;1642687;86;21020;-63
2022/04/01 10:37:35;;;;;;;58.30;9.47;;;;;;;30.71;21.54;98885.95;1650215;86;21615;-58
2022/04/01 10:40:17;;;;;;;49.00;10.17;;;;;;;30.90;21.26;98879.86;1657316;86;21866;-58
2022/04/01 10:42:45;;;;;;;48.70;9.57;;;;;;;30.64;21.54;98869.09;1657423;86;21090;-57
2022/04/01 10:45:29;;;;;;;43.23;9.37;;;;;;;30.94;21.37;98862.66;1657888;86;21643;-58
2022/04/01 10:51:44;;;;;;;67.00;10.43;;;;;;;30.02;22.06;98862.05;1668733;85;21040;-56
2022/04/01 10:54:16;;;;;;;54.10;11.13;;;;;;;30.32;21.71;98849.55;1657807;85;21273;-57
2022/04/01 10:57:00;;;;;;;63.63;14.20;;;;;;;30.48;21.53;98842.23;1658383;86;21879;-58
2022/04/01 10:59:46;;;;;;;61.97;11.67;;;;;;;30.21;21.88;98840.45;1660132;85;21121;-58
2022/04/01 11:02:20;;;;;;;70.97;11.83;;;;;;;30.95;21.57;98823.87;1658384;86;22408;-58
2022/04/01 11:04:48;;;;;;;66.63;12.47;;;;;;;31.50;20.75;98841.27;1624886;87;21061;-57
2022/04/01 11:07:28;;;;;;;69.30;11.53;;;;;;;31.57;20.54;98838.72;1640807;86;21158;-61
2022/04/01 11:10:00;;;;;;;72.77;9.87;;;;;;;31.49;20.83;98843.77;1623714;87;21105;-58
2022/04/01 11:12:38;;;;;;;65.63;13.27;;;;;;;31.71;20.60;98836.28;1704157;82;21588;-57
2022/04/01 11:15:11;;;;;;;64.53;12.40;;;;;;;31.80;20.74;98844.11;1725866;82;21126;-58
2022/04/01 11:18:00;;;;;;;75.15;12.82;;;;;;;30.79;21.46;98840.62;1738217;82;20951;-57
2022/04/01 11:20:55;;;;;;;51.67;12.30;;;;;;;30.59;21.96;98851.11;1737330;82;21106;-58
2022/04/01 11:23:21;;;;;;;63.13;12.03;;;;;;;30.79;21.88;98855.41;1737869;82;21072;-57
2022/04/01 11:25:51;;;;;;;84.17;14.63;;;;;;;30.82;21.86;98828.38;1736842;81;21049;-59
2022/04/01 11:28:38;;;;;;;79.90;11.90;;;;;;;31.23;21.46;98846.52;1737462;81;22405;-58
2022/04/01 11:31:06;;;;;;;80.63;13.13;;;;;;;30.80;21.85;98841.39;1737746;81;21086;-58
2022/04/01 11:33:34;;;;;;;98.20;15.20;;;;;;;30.66;21.60;98843.98;1659287;86;21032;-58
2022/04/01 11:36:03;;;;;;;75.13;13.00;;;;;;;30.33;22.01;98844.95;1610927;88;21093;-61
2022/04/01 11:38:32;;;;;;;90.73;12.73;;;;;;;30.18;22.23;98828.48;1555179;92;21225;-57
2022/04/01 11:41:01;;;;;;;69.30;13.77;;;;;;;30.14;22.32;98837.00;1572523;90;21149;-57
2022/04/01 11:43:45;;;;;;;63.47;13.43;;;;;;;30.22;22.28;98837.98;1580729;90;21086;-57
2022/04/01 11:46:30;;;;;;;70.43;12.37;;;;;;;30.31;22.28;98831.88;1567571;90;21110;-58
2022/04/01 11:49:15;;;;;;;75.37;14.07;;;;;;;30.33;22.01;98832.85;1579529;90;21107;-57
2022/04/01 11:51:42;;;;;;;75.67;14.63;;;;;;;30.25;22.11;98825.19;1565297;90;21066;-57
2022/04/01 11:54:10;;;;;;;63.73;12.67;;;;;;;30.12;22.27;98823.15;1579194;89;21520;-57
2022/04/01 11:56:38;;;;;;;67.33;11.67;;;;;;;30.37;22.03;98811.64;1566120;90;21092;-57